createdAt,value
2022-12-24T00:01:38.910Z,10.90
2022-12-24T00:03:41.646Z,10.90
2022-12-24T00:05:44.261Z,11.00
2022-12-24T00:07:46.992Z,11.00
2022-12-24T00:09:49.639Z,11.10
2022-12-24T00:11:52.251Z,11.10
2022-12-24T00:13:54.915Z,11.10
2022-12-24T00:15:57.916Z,11.10
2022-12-24T00:18:00.443Z,11.10
2022-12-24T00:20:05.227Z,11.00
2022-12-24T00:22:07.963Z,11.00
2022-12-24T00:24:10.663Z,10.90
2022-12-24T00:26:14.025Z,10.90
2022-12-24T00:28:17.196Z,10.90
2022-12-24T00:30:19.809Z,10.90
2022-12-24T00:32:22.822Z,10.90
2022-12-24T00:34:25.842Z,10.90
2022-12-24T00:36:28.473Z,10.80
2022-12-24T00:38:31.031Z,10.80
2022-12-24T00:40:33.650Z,10.80
2022-12-24T00:42:36.179Z,10.70
2022-12-24T00:44:38.688Z,10.70
2022-12-24T00:46:41.499Z,10.70
2022-12-24T00:48:44.209Z,10.70
2022-12-24T00:50:48.911Z,10.70
2022-12-24T00:52:53.828Z,10.70
2022-12-24T00:55:32.194Z,10.70
2022-12-24T00:57:36.723Z,10.60
2022-12-24T00:59:39.336Z,10.60
2022-12-24T01:01:41.995Z,10.50
2022-12-24T01:03:44.832Z,10.60
2022-12-24T01:05:47.911Z,10.60
2022-12-24T01:07:50.497Z,10.60
2022-12-24T01:09:53.073Z,10.60
2022-12-24T01:11:55.743Z,10.60
2022-12-24T01:13:58.219Z,10.60
2022-12-24T01:16:00.832Z,10.60
2022-12-24T01:18:03.752Z,10.60
2022-12-24T01:20:08.265Z,10.60
2022-12-24T01:22:10.787Z,10.60
2022-12-24T01:24:15.009Z,10.60
2022-12-24T01:26:17.540Z,10.60
2022-12-24T01:28:20.661Z,10.60
2022-12-24T01:30:23.670Z,10.60
2022-12-24T01:32:26.188Z,10.60
2022-12-24T01:34:28.745Z,10.70
2022-12-24T01:36:31.271Z,10.70
2022-12-24T01:38:33.971Z,10.60
2022-12-24T01:40:54.424Z,10.70
2022-12-24T01:43:15.043Z,10.70
2022-12-24T01:45:40.888Z,10.80
2022-12-24T01:47:44.446Z,10.80
2022-12-24T01:49:49.123Z,10.90
2022-12-24T01:51:54.751Z,10.80
2022-12-24T01:54:01.289Z,10.80
2022-12-24T01:56:05.720Z,10.80
2022-12-24T01:58:09.492Z,10.70
2022-12-24T02:00:13.723Z,10.70
2022-12-24T02:02:16.962Z,10.80
2022-12-24T02:04:22.257Z,10.80
2022-12-24T02:06:24.891Z,10.80
2022-12-24T02:08:30.292Z,10.80
2022-12-24T02:10:32.780Z,10.80
2022-12-24T02:12:35.627Z,10.80
2022-12-24T02:14:38.547Z,10.80
2022-12-24T02:16:42.973Z,10.80
2022-12-24T02:18:48.647Z,10.90
2022-12-24T02:21:08.980Z,10.90
2022-12-24T02:23:18.021Z,10.90
2022-12-24T02:25:32.911Z,10.90
2022-12-24T02:27:39.927Z,10.90
2022-12-24T02:29:56.696Z,10.70
2022-12-24T02:32:01.059Z,10.80
2022-12-24T02:34:06.018Z,10.70
2022-12-24T02:36:10.943Z,10.70
2022-12-24T02:38:16.392Z,10.70
2022-12-24T02:40:20.801Z,10.70
2022-12-24T02:42:25.126Z,10.60
2022-12-24T02:44:29.136Z,10.70
2022-12-24T02:46:32.680Z,10.70
2022-12-24T02:48:37.368Z,10.60
2022-12-24T02:50:39.871Z,10.60
2022-12-24T02:52:43.899Z,10.60
2022-12-24T02:54:46.412Z,10.60
2022-12-24T02:56:53.691Z,10.60
2022-12-24T02:59:02.285Z,10.50
2022-12-24T03:01:16.646Z,10.50
2022-12-24T03:03:24.643Z,10.50
2022-12-24T03:05:29.007Z,10.50
2022-12-24T03:07:33.347Z,10.50
2022-12-24T03:09:37.656Z,10.60
2022-12-24T03:11:42.715Z,10.60
2022-12-24T03:13:45.410Z,10.60
2022-12-24T03:15:49.285Z,10.60
2022-12-24T03:17:53.123Z,10.60
2022-12-24T03:19:56.127Z,10.50
2022-12-24T03:21:59.513Z,10.50
2022-12-24T03:24:02.165Z,10.40
2022-12-24T03:26:06.540Z,10.40
2022-12-24T03:28:10.139Z,10.40
2022-12-24T03:30:13.975Z,10.30
2022-12-24T03:32:18.247Z,10.30
2022-12-24T03:34:20.771Z,10.30
2022-12-24T03:36:24.956Z,10.30
2022-12-24T03:38:27.568Z,10.30
2022-12-24T03:40:30.187Z,10.20
2022-12-24T03:42:32.765Z,10.30
2022-12-24T03:44:35.269Z,10.30
2022-12-24T03:46:37.745Z,10.20
2022-12-24T03:48:40.215Z,10.30
2022-12-24T03:50:42.721Z,10.20
2022-12-24T03:52:45.188Z,10.10
2022-12-24T03:54:47.702Z,10.20
2022-12-24T03:56:50.196Z,10.10
2022-12-24T03:58:52.871Z,10.10
2022-12-24T04:00:55.549Z,10.10
2022-12-24T04:02:58.051Z,10.10
2022-12-24T04:05:00.645Z,10.20
2022-12-24T04:07:03.216Z,10.20
2022-12-24T04:09:05.677Z,10.30
2022-12-24T04:11:10.101Z,10.30
2022-12-24T04:13:12.905Z,10.30
2022-12-24T04:15:15.422Z,10.30
2022-12-24T04:17:18.030Z,10.30
2022-12-24T04:19:20.609Z,10.30
2022-12-24T04:21:23.173Z,10.40
2022-12-24T04:23:25.666Z,10.40
2022-12-24T04:25:28.274Z,10.40
2022-12-24T04:27:31.163Z,10.40
2022-12-24T04:29:33.659Z,10.50
2022-12-24T04:31:36.226Z,10.50
2022-12-24T04:33:38.817Z,10.40
2022-12-24T04:35:41.781Z,10.40
2022-12-24T04:37:44.279Z,10.20
2022-12-24T04:39:46.758Z,10.50
2022-12-24T04:41:49.258Z,10.50
2022-12-24T04:43:52.269Z,10.50
2022-12-24T04:45:55.217Z,10.50
2022-12-24T04:47:57.734Z,10.40
2022-12-24T04:50:01.113Z,10.40
2022-12-24T04:52:03.628Z,10.50
2022-12-24T04:54:06.141Z,10.40
2022-12-24T04:56:09.820Z,10.50
2022-12-24T04:58:12.352Z,10.50
2022-12-24T05:00:15.334Z,10.50
2022-12-24T05:02:18.059Z,10.50
2022-12-24T05:04:20.823Z,10.50
2022-12-24T05:06:24.748Z,10.60
2022-12-24T05:08:27.205Z,10.50
2022-12-24T05:10:29.668Z,10.60
2022-12-24T05:12:32.143Z,10.60
2022-12-24T05:14:34.676Z,10.60
2022-12-24T05:16:38.201Z,10.60
2022-12-24T05:18:40.856Z,10.60
2022-12-24T05:20:43.550Z,10.60
2022-12-24T05:23:04.115Z,10.60
2022-12-24T05:25:24.912Z,10.60
2022-12-24T05:27:27.642Z,10.70
2022-12-24T05:29:30.320Z,10.60
2022-12-24T05:31:33.516Z,10.60
2022-12-24T05:33:36.299Z,10.60
2022-12-24T05:35:38.783Z,10.60
2022-12-24T05:37:41.269Z,10.60
2022-12-24T05:39:43.793Z,10.60
2022-12-24T05:41:46.463Z,10.60
2022-12-24T05:43:49.056Z,10.70
2022-12-24T05:45:51.651Z,10.70
2022-12-24T05:47:54.172Z,10.70
2022-12-24T05:49:56.687Z,10.70
2022-12-24T05:51:59.173Z,10.70
2022-12-24T05:54:01.683Z,10.70
2022-12-24T05:56:05.026Z,10.70
2022-12-24T05:58:07.713Z,10.70
2022-12-24T06:00:11.153Z,10.60
2022-12-24T06:02:15.591Z,10.60
2022-12-24T06:04:23.068Z,10.70
2022-12-24T06:06:23.752Z,10.60
2022-12-24T06:08:26.294Z,10.60
2022-12-24T06:10:28.799Z,10.70
2022-12-24T06:12:31.299Z,10.70
2022-12-24T06:14:33.836Z,10.60
2022-12-24T06:16:36.379Z,10.50
2022-12-24T06:18:38.925Z,10.50
2022-12-24T06:20:41.416Z,10.40
2022-12-24T06:22:44.440Z,10.40
2022-12-24T06:24:46.912Z,10.40
2022-12-24T06:26:49.455Z,10.50
2022-12-24T06:28:52.139Z,10.50
2022-12-24T06:31:00.334Z,10.40
2022-12-24T06:32:58.977Z,10.50
2022-12-24T06:35:01.533Z,10.40
2022-12-24T06:37:04.043Z,10.40
2022-12-24T06:39:06.550Z,10.40
2022-12-24T06:41:09.153Z,10.50
2022-12-24T06:43:12.092Z,10.50
2022-12-24T06:45:14.650Z,10.40
2022-12-24T06:47:17.139Z,10.40
2022-12-24T06:49:19.607Z,10.40
2022-12-24T06:51:22.127Z,10.40
2022-12-24T06:53:24.615Z,10.50
2022-12-24T06:55:27.147Z,10.50
2022-12-24T06:57:31.293Z,10.40
2022-12-24T06:59:34.410Z,10.40
2022-12-24T07:01:37.038Z,10.50
2022-12-24T07:03:39.954Z,10.40
2022-12-24T07:05:42.565Z,10.80
2022-12-24T07:07:45.285Z,10.40
2022-12-24T07:09:47.765Z,10.50
2022-12-24T07:11:50.278Z,10.40
2022-12-24T07:13:52.797Z,10.50
2022-12-24T07:15:58.983Z,10.50
2022-12-24T07:18:01.490Z,10.50
2022-12-24T07:20:04.793Z,10.50
2022-12-24T07:22:13.442Z,10.50
2022-12-24T07:24:11.667Z,10.50
2022-12-24T07:26:14.176Z,10.40
2022-12-24T07:28:17.458Z,10.50
2022-12-24T07:30:21.106Z,10.40
2022-12-24T07:32:23.609Z,10.40
2022-12-24T07:34:26.226Z,10.50
2022-12-24T07:36:28.789Z,10.50
2022-12-24T07:38:31.599Z,10.50
2022-12-24T07:40:34.547Z,10.60
2022-12-24T07:42:37.021Z,10.60
2022-12-24T07:44:40.909Z,10.60
2022-12-24T07:46:43.803Z,10.60
2022-12-24T07:48:46.331Z,10.60
2022-12-24T07:50:49.555Z,10.60
2022-12-24T07:52:53.117Z,10.70
2022-12-24T07:54:56.624Z,10.70
2022-12-24T07:56:59.303Z,10.60
2022-12-24T07:59:01.829Z,10.70
2022-12-24T08:01:04.409Z,10.60
2022-12-24T08:03:07.081Z,10.60
2022-12-24T08:05:10.010Z,10.60
2022-12-24T08:07:12.524Z,10.60
2022-12-24T08:09:14.983Z,10.70
2022-12-24T08:11:17.588Z,10.70
2022-12-24T08:13:20.252Z,10.70
2022-12-24T08:15:22.787Z,10.70
2022-12-24T08:17:31.743Z,10.70
2022-12-24T08:19:29.638Z,10.70
2022-12-24T08:21:32.100Z,10.70
2022-12-24T08:23:34.666Z,10.70
2022-12-24T08:25:37.493Z,10.70
2022-12-24T08:27:40.106Z,10.60
2022-12-24T08:29:42.603Z,10.70
2022-12-24T08:31:45.147Z,10.70
2022-12-24T08:33:47.712Z,10.70
2022-12-24T08:35:50.790Z,10.70
2022-12-24T08:37:53.678Z,10.70
2022-12-24T08:39:56.319Z,10.80
2022-12-24T08:41:58.903Z,10.80
2022-12-24T08:44:01.559Z,10.80
2022-12-24T08:46:05.297Z,10.80
2022-12-24T08:48:08.338Z,10.80
2022-12-24T08:50:11.279Z,10.80
2022-12-24T08:52:13.874Z,10.90
2022-12-24T08:54:16.363Z,10.90
2022-12-24T08:56:18.835Z,10.90
2022-12-24T08:58:21.461Z,10.90
2022-12-24T09:00:27.076Z,10.90
2022-12-24T09:02:30.478Z,10.90
2022-12-24T09:04:34.654Z,10.90
2022-12-24T09:06:44.168Z,10.90
2022-12-24T09:08:47.873Z,11.00
2022-12-24T09:10:50.385Z,11.00
2022-12-24T09:12:52.862Z,11.00
2022-12-24T09:15:01.191Z,11.00
2022-12-24T09:16:59.999Z,11.00
2022-12-24T09:19:02.706Z,10.90
2022-12-24T09:21:06.323Z,10.90
2022-12-24T09:23:09.535Z,10.90
2022-12-24T09:25:12.139Z,10.90
2022-12-24T09:27:14.616Z,10.90
2022-12-24T09:29:17.143Z,11.00
2022-12-24T09:31:20.962Z,11.00
2022-12-24T09:33:23.537Z,11.00
2022-12-24T09:35:26.116Z,11.10
2022-12-24T09:37:28.656Z,11.10
2022-12-24T09:39:31.387Z,11.10
2022-12-24T09:41:38.102Z,11.10
2022-12-24T09:43:42.472Z,11.20
2022-12-24T09:45:47.498Z,11.20
2022-12-24T09:47:51.993Z,11.20
2022-12-24T09:49:56.273Z,11.20
2022-12-24T09:52:01.500Z,11.30
2022-12-24T09:54:05.837Z,11.30
2022-12-24T09:56:11.567Z,11.40
2022-12-24T09:58:20.696Z,11.40
2022-12-24T10:00:25.236Z,11.40
2022-12-24T10:02:27.985Z,11.40
2022-12-24T10:04:33.000Z,11.40
2022-12-24T10:06:37.800Z,11.30
2022-12-24T10:08:43.716Z,11.30
2022-12-24T10:10:49.262Z,11.30
2022-12-24T10:12:53.700Z,11.30
2022-12-24T10:14:58.964Z,11.30
2022-12-24T10:17:05.035Z,11.30
2022-12-24T10:19:10.311Z,11.30
2022-12-24T10:21:15.205Z,11.20
2022-12-24T10:23:23.411Z,11.30
2022-12-24T10:25:27.730Z,11.30
2022-12-24T10:27:32.255Z,11.30
2022-12-24T10:29:36.012Z,11.30
2022-12-24T10:31:40.323Z,11.30
2022-12-24T10:33:44.332Z,11.40
2022-12-24T10:35:48.857Z,11.40
2022-12-24T10:37:52.760Z,11.50
2022-12-24T10:39:55.374Z,11.40
2022-12-24T10:41:59.457Z,11.40
2022-12-24T10:44:02.472Z,11.40
2022-12-24T10:46:06.800Z,11.50
2022-12-24T10:48:11.306Z,11.50
2022-12-24T10:50:15.870Z,11.50
2022-12-24T10:52:20.135Z,11.60
2022-12-24T10:54:27.239Z,11.60
2022-12-24T10:56:28.222Z,11.60
2022-12-24T10:58:31.243Z,11.70
2022-12-24T11:00:36.656Z,11.80
2022-12-24T11:02:39.384Z,11.80
2022-12-24T11:04:46.370Z,11.90
2022-12-24T11:06:52.877Z,11.90
2022-12-24T11:08:57.525Z,11.90
2022-12-24T11:11:01.407Z,11.90
2022-12-24T11:13:36.210Z,11.90
2022-12-24T11:15:14.284Z,12.00
2022-12-24T11:17:20.872Z,11.90
2022-12-24T11:19:26.674Z,12.00
2022-12-24T11:21:30.125Z,12.00
2022-12-24T11:23:32.732Z,12.00
2022-12-24T11:25:37.151Z,12.00
2022-12-24T11:27:41.522Z,12.00
2022-12-24T11:29:44.029Z,11.90
2022-12-24T11:31:46.941Z,11.90
2022-12-24T11:33:52.088Z,11.90
2022-12-24T11:35:57.316Z,11.80
2022-12-24T11:38:10.035Z,11.80
2022-12-24T11:40:20.224Z,11.80
2022-12-24T11:42:24.876Z,11.80
2022-12-24T11:44:27.905Z,11.80
2022-12-24T11:46:37.374Z,11.80
2022-12-24T11:48:39.927Z,11.80
2022-12-24T11:50:42.407Z,11.80
2022-12-24T11:52:46.088Z,11.90
2022-12-24T11:54:54.193Z,11.90
2022-12-24T11:56:57.991Z,12.00
2022-12-24T11:59:02.681Z,12.10
2022-12-24T12:01:15.243Z,12.10
2022-12-24T12:03:15.610Z,12.10
2022-12-24T12:05:19.377Z,12.10
2022-12-24T12:07:23.713Z,12.00
2022-12-24T12:09:28.147Z,12.10
2022-12-24T12:11:30.779Z,12.00
2022-12-24T12:13:34.385Z,12.00
2022-12-24T12:15:38.750Z,12.00
2022-12-24T12:17:43.179Z,12.00
2022-12-24T12:19:47.510Z,12.00
2022-12-24T12:21:50.375Z,12.10
2022-12-24T12:23:54.795Z,12.00
2022-12-24T12:25:59.641Z,12.00
2022-12-24T12:28:03.051Z,11.90
2022-12-24T12:30:07.334Z,11.90
2022-12-24T12:32:12.729Z,11.90
2022-12-24T12:34:17.222Z,11.80
2022-12-24T12:36:21.563Z,11.80
2022-12-24T12:38:25.836Z,11.80
2022-12-24T12:40:32.922Z,11.80
2022-12-24T12:42:37.326Z,11.70
2022-12-24T12:44:48.124Z,11.70
2022-12-24T12:46:55.343Z,11.60
2022-12-24T12:49:05.459Z,11.60
2022-12-24T12:51:08.960Z,11.60
2022-12-24T12:53:16.284Z,11.60
2022-12-24T12:55:24.956Z,11.60
2022-12-24T12:57:29.281Z,11.60
2022-12-24T12:59:39.315Z,11.60
2022-12-24T13:01:46.916Z,11.60
2022-12-24T13:04:06.791Z,11.60
2022-12-24T13:06:16.958Z,11.70
2022-12-24T13:08:28.806Z,11.70
2022-12-24T13:11:00.927Z,11.60
2022-12-24T13:13:09.200Z,11.60
2022-12-24T13:15:26.760Z,11.60
2022-12-24T13:17:41.077Z,11.60
2022-12-24T13:19:47.916Z,11.60
2022-12-24T13:21:52.200Z,11.70
2022-12-24T13:24:05.271Z,11.70
2022-12-24T13:26:10.954Z,11.70
2022-12-24T13:28:17.608Z,11.70
2022-12-24T13:30:33.930Z,11.60
2022-12-24T13:32:49.785Z,11.60
2022-12-24T13:34:53.462Z,11.50
2022-12-24T13:37:03.601Z,11.50
2022-12-24T13:39:06.113Z,11.50
2022-12-24T13:41:26.481Z,11.40
2022-12-24T13:43:30.771Z,11.40
2022-12-24T13:45:44.172Z,11.40
2022-12-24T13:47:46.774Z,11.40
2022-12-24T13:49:50.887Z,11.40
2022-12-24T13:52:04.162Z,11.40
2022-12-24T13:54:09.925Z,11.40
2022-12-24T13:56:18.446Z,11.40
2022-12-24T13:58:21.259Z,12.30
2022-12-24T14:00:27.291Z,11.50
2022-12-24T14:02:31.782Z,11.50
2022-12-24T14:04:35.810Z,11.50
2022-12-24T14:06:40.119Z,11.50
2022-12-24T14:08:43.841Z,11.60
2022-12-24T14:10:48.247Z,11.60
2022-12-24T14:12:52.030Z,11.50
2022-12-24T14:14:54.633Z,11.50
2022-12-24T14:16:58.699Z,11.50
2022-12-24T14:19:02.437Z,11.50
2022-12-24T14:21:05.678Z,11.40
2022-12-24T14:23:09.983Z,11.40
2022-12-24T14:25:14.515Z,11.30
2022-12-24T14:27:18.671Z,11.30
2022-12-24T14:29:25.190Z,11.30
2022-12-24T14:31:28.015Z,11.30
2022-12-24T14:33:36.649Z,11.20
2022-12-24T14:35:40.066Z,11.20
2022-12-24T14:37:44.437Z,11.20
2022-12-24T14:39:48.768Z,11.20
2022-12-24T14:41:53.206Z,11.10
2022-12-24T14:43:59.697Z,11.10
2022-12-24T14:46:05.325Z,11.00
2022-12-24T14:48:11.252Z,10.90
2022-12-24T14:50:38.881Z,10.90
2022-12-24T14:53:04.648Z,10.90
2022-12-24T14:54:47.557Z,10.80
2022-12-24T14:56:58.943Z,10.70
2022-12-24T14:59:05.965Z,10.60
2022-12-24T15:01:20.384Z,10.60
2022-12-24T15:03:24.426Z,10.60
2022-12-24T15:05:28.956Z,10.50
2022-12-24T15:07:31.994Z,10.50
2022-12-24T15:09:36.507Z,10.40
2022-12-24T15:11:38.995Z,10.40
2022-12-24T15:13:42.347Z,10.30
2022-12-24T15:15:51.961Z,10.20
2022-12-24T15:17:50.523Z,10.20
2022-12-24T15:19:53.448Z,10.10
2022-12-24T15:21:56.056Z,10.00
2022-12-24T15:23:58.548Z,10.00
2022-12-24T15:26:08.635Z,10.00
2022-12-24T15:28:16.231Z,10.00
2022-12-24T15:30:19.623Z,10.00
2022-12-24T15:32:22.964Z,10.00
2022-12-24T15:34:29.789Z,10.00
2022-12-24T15:36:33.419Z,10.00
2022-12-24T15:38:37.512Z,10.00
2022-12-24T15:40:40.043Z,9.90
2022-12-24T15:42:42.954Z,9.90
2022-12-24T15:44:48.100Z,9.80
2022-12-24T15:46:50.669Z,9.80
2022-12-24T15:48:54.017Z,9.90
2022-12-24T15:50:57.643Z,9.90
2022-12-24T15:53:19.504Z,9.90
2022-12-24T15:55:24.224Z,9.90
2022-12-24T15:57:28.663Z,9.90
2022-12-24T15:59:34.764Z,9.80
2022-12-24T16:01:44.988Z,9.80
2022-12-24T16:04:05.709Z,9.80
2022-12-24T16:06:16.999Z,9.80
2022-12-24T16:08:26.123Z,9.80
2022-12-24T16:10:36.981Z,9.80
2022-12-24T16:12:47.348Z,9.80
2022-12-24T16:15:03.282Z,9.80
2022-12-24T16:17:23.007Z,9.80
2022-12-24T16:19:39.746Z,9.80
2022-12-24T16:21:40.459Z,9.70
2022-12-24T16:23:46.185Z,9.70
2022-12-24T16:25:48.659Z,9.60
2022-12-24T16:27:51.465Z,9.60
2022-12-24T16:29:53.997Z,9.50
2022-12-24T16:31:57.805Z,9.50
2022-12-24T16:34:01.033Z,9.40
2022-12-24T16:36:04.054Z,9.50
2022-12-24T16:38:06.543Z,9.50
2022-12-24T16:40:18.253Z,9.40
2022-12-24T16:42:35.421Z,9.40
2022-12-24T16:44:38.313Z,9.30
2022-12-24T16:46:41.136Z,9.20
2022-12-24T16:48:44.927Z,9.20
2022-12-24T16:50:47.430Z,9.10
2022-12-24T16:52:50.015Z,9.20
2022-12-24T16:54:52.637Z,9.10
2022-12-24T16:56:55.107Z,9.10
2022-12-24T16:58:57.676Z,9.00
2022-12-24T17:01:02.189Z,9.00
2022-12-24T17:03:04.847Z,9.00
2022-12-24T17:05:08.532Z,9.10
2022-12-24T17:07:11.490Z,9.00
2022-12-24T17:09:13.954Z,9.00
2022-12-24T17:11:16.621Z,8.90
2022-12-24T17:13:19.088Z,8.90
2022-12-24T17:15:21.782Z,8.90
2022-12-24T17:17:25.169Z,8.90
2022-12-24T17:19:27.759Z,8.80
2022-12-24T17:21:30.217Z,8.80
2022-12-24T17:23:33.115Z,8.80
2022-12-24T17:25:36.266Z,8.80
2022-12-24T17:27:38.878Z,8.70
2022-12-24T17:29:41.708Z,8.60
2022-12-24T17:31:44.234Z,8.60
2022-12-24T17:33:47.990Z,8.60
2022-12-24T17:35:51.780Z,8.60
2022-12-24T17:37:54.407Z,8.50
2022-12-24T17:39:56.874Z,8.50
2022-12-24T17:41:59.482Z,8.50
2022-12-24T17:44:01.959Z,8.50
2022-12-24T17:46:05.302Z,8.50
2022-12-24T17:48:07.882Z,8.40
2022-12-24T17:50:11.522Z,8.40
2022-12-24T17:52:14.866Z,8.40
2022-12-24T17:54:17.395Z,8.40
2022-12-24T17:56:19.852Z,8.40
2022-12-24T17:58:22.396Z,8.50
2022-12-24T18:00:29.485Z,8.50
2022-12-24T18:02:29.540Z,8.40
2022-12-24T18:04:32.270Z,8.40
2022-12-24T18:06:34.768Z,8.40
2022-12-24T18:08:37.720Z,8.30
2022-12-24T18:10:40.179Z,8.30
2022-12-24T18:12:42.685Z,8.30
2022-12-24T18:14:45.156Z,8.30
2022-12-24T18:16:48.163Z,8.20
2022-12-24T18:18:51.286Z,8.20
2022-12-24T18:20:53.807Z,8.30
2022-12-24T18:22:56.749Z,8.30
2022-12-24T18:24:59.338Z,8.30
2022-12-24T18:27:02.408Z,8.20
2022-12-24T18:29:05.390Z,8.20
2022-12-24T18:31:09.413Z,8.20
2022-12-24T18:33:11.887Z,8.10
2022-12-24T18:35:14.464Z,8.10
2022-12-24T18:37:17.068Z,8.10
2022-12-24T18:39:19.684Z,8.10
2022-12-24T18:41:22.830Z,8.00
2022-12-24T18:43:25.375Z,8.00
2022-12-24T18:45:27.858Z,7.90
2022-12-24T18:47:30.469Z,7.90
2022-12-24T18:49:32.983Z,7.90
2022-12-24T18:51:35.666Z,8.00
2022-12-24T18:53:38.674Z,8.00
2022-12-24T18:55:41.544Z,8.00
2022-12-24T18:57:44.087Z,8.00
2022-12-24T18:59:46.573Z,7.90
2022-12-24T19:01:49.306Z,8.00
2022-12-24T19:03:52.038Z,7.90
2022-12-24T19:05:56.425Z,7.80
2022-12-24T19:07:58.934Z,7.70
2022-12-24T19:10:01.561Z,7.60
2022-12-24T19:12:04.585Z,7.60
2022-12-24T19:14:08.869Z,7.70
2022-12-24T19:16:11.376Z,7.70
2022-12-24T19:18:13.864Z,7.70
2022-12-24T19:20:16.456Z,7.70
2022-12-24T19:22:18.939Z,7.70
2022-12-24T19:24:21.399Z,7.70
2022-12-24T19:26:23.910Z,7.60
2022-12-24T19:28:26.726Z,7.60
2022-12-24T19:30:29.222Z,7.60
2022-12-24T19:32:31.736Z,7.60
2022-12-24T19:34:34.217Z,7.60
2022-12-24T19:36:36.690Z,7.60
2022-12-24T19:38:39.388Z,7.60
2022-12-24T19:40:42.043Z,7.60
2022-12-24T19:42:44.849Z,7.60
2022-12-24T19:44:47.302Z,7.60
2022-12-24T19:46:49.858Z,7.60
2022-12-24T19:48:53.185Z,7.60
2022-12-24T19:51:00.124Z,7.60
2022-12-24T19:53:02.644Z,7.60
2022-12-24T19:55:06.144Z,7.60
2022-12-24T19:57:08.682Z,7.60
2022-12-24T19:59:11.168Z,7.60
2022-12-24T20:01:15.953Z,7.70
2022-12-24T20:03:19.846Z,7.70
2022-12-24T20:05:27.533Z,7.70
2022-12-24T20:07:30.419Z,7.80
2022-12-24T20:09:33.330Z,7.80
2022-12-24T20:11:41.655Z,7.70
2022-12-24T20:13:46.343Z,7.70
2022-12-24T20:15:48.870Z,7.60
2022-12-24T20:17:53.015Z,7.60
2022-12-24T20:19:55.526Z,7.60
2022-12-24T20:21:58.006Z,7.70
2022-12-24T20:24:00.583Z,7.70
2022-12-24T20:26:04.345Z,7.60
2022-12-24T20:28:06.858Z,7.70
2022-12-24T20:30:10.461Z,7.70
2022-12-24T20:32:13.012Z,7.70
2022-12-24T20:34:15.635Z,7.70
2022-12-24T20:36:19.148Z,7.70
2022-12-24T20:38:21.659Z,7.70
2022-12-24T20:40:24.135Z,7.70
2022-12-24T20:42:27.184Z,7.80
2022-12-24T20:44:29.687Z,7.80
2022-12-24T20:46:32.353Z,7.80
2022-12-24T20:48:34.993Z,7.80
2022-12-24T20:50:40.823Z,7.80
2022-12-24T20:52:43.323Z,7.90
2022-12-24T20:54:45.955Z,7.90
2022-12-24T20:56:57.852Z,7.90
2022-12-24T20:58:52.988Z,7.90
2022-12-24T21:00:56.541Z,8.00
2022-12-24T21:02:59.331Z,7.90
2022-12-24T21:05:02.732Z,7.90
2022-12-24T21:07:05.403Z,8.00
2022-12-24T21:09:07.953Z,8.00
2022-12-24T21:11:29.505Z,7.90
2022-12-24T21:13:32.691Z,7.90
2022-12-24T21:15:36.088Z,7.90
2022-12-24T21:17:38.615Z,7.90
2022-12-24T21:19:41.152Z,7.90
2022-12-24T21:21:44.450Z,7.90
2022-12-24T21:23:47.013Z,7.90
2022-12-24T21:25:57.259Z,7.90
2022-12-24T21:27:59.740Z,7.90
2022-12-24T21:30:02.572Z,7.90
2022-12-24T21:32:05.174Z,7.90
2022-12-24T21:34:07.652Z,7.90
2022-12-24T21:36:11.146Z,8.00
2022-12-24T21:38:13.831Z,8.00
2022-12-24T21:40:19.261Z,8.00
2022-12-24T21:42:21.816Z,8.00
2022-12-24T21:44:26.567Z,8.00
2022-12-24T21:46:29.751Z,8.00
2022-12-24T21:49:07.228Z,8.00
2022-12-24T21:53:44.013Z,8.10
2022-12-24T21:55:46.505Z,8.10
2022-12-24T21:57:54.788Z,8.10
2022-12-24T22:00:00.588Z,8.10
2022-12-24T22:02:03.841Z,8.10
2022-12-24T22:04:06.444Z,8.20
2022-12-24T22:06:11.367Z,8.20
2022-12-24T22:08:31.746Z,8.20
2022-12-24T22:10:52.479Z,8.20
2022-12-24T22:12:55.697Z,8.30
2022-12-24T22:14:58.213Z,8.30
2022-12-24T22:17:00.803Z,8.40
2022-12-24T22:19:03.344Z,8.40
2022-12-24T22:21:06.835Z,8.50
2022-12-24T22:23:09.508Z,8.60
2022-12-24T22:25:12.905Z,8.50
2022-12-24T22:27:15.826Z,8.60
2022-12-24T22:29:18.346Z,8.50
2022-12-24T22:31:22.868Z,8.60
2022-12-24T22:33:25.737Z,8.60
2022-12-24T22:35:28.222Z,8.50
2022-12-24T22:37:30.750Z,8.50
2022-12-24T22:39:33.243Z,8.60
2022-12-24T22:41:35.750Z,8.60
2022-12-24T22:43:38.256Z,8.50
2022-12-24T22:45:40.766Z,8.50
2022-12-24T22:47:43.270Z,8.50
2022-12-24T22:49:47.446Z,8.40
2022-12-24T22:51:49.971Z,8.40
2022-12-24T22:53:52.494Z,8.40
2022-12-24T22:55:56.137Z,8.30
2022-12-24T22:57:58.639Z,8.30
2022-12-24T23:00:01.096Z,8.30
2022-12-24T23:02:04.557Z,8.30
2022-12-24T23:04:07.588Z,8.30
2022-12-24T23:06:10.437Z,8.40
2022-12-24T23:08:13.666Z,8.40
2022-12-24T23:10:16.684Z,8.50
2022-12-24T23:12:21.307Z,8.60
2022-12-24T23:14:42.514Z,8.50
2022-12-24T23:16:45.521Z,8.50
2022-12-24T23:18:48.519Z,8.50
2022-12-24T23:20:51.410Z,8.50
2022-12-24T23:22:53.887Z,8.40
2022-12-24T23:24:56.345Z,8.40
2022-12-24T23:27:00.926Z,8.40
2022-12-24T23:29:03.587Z,8.40
2022-12-24T23:31:06.687Z,8.40
2022-12-24T23:33:10.321Z,8.40
2022-12-24T23:35:12.886Z,8.30
2022-12-24T23:37:15.375Z,8.30
2022-12-24T23:39:17.864Z,8.30
2022-12-24T23:41:20.425Z,8.30
2022-12-24T23:43:23.067Z,8.20
2022-12-24T23:45:25.566Z,8.30
2022-12-24T23:47:28.071Z,8.30
2022-12-24T23:49:30.611Z,8.20
2022-12-24T23:51:33.126Z,8.10
2022-12-24T23:53:35.776Z,8.10
2022-12-24T23:55:38.703Z,8.00
2022-12-24T23:57:41.449Z,8.00
2022-12-24T23:59:44.115Z,8.00
